sensor_id;sensor_type;location;lat;lon;timestamp;P1;durP1;ratioP1;P2;durP2;ratioP2
37267;SDS011;23154;52.542;13.362;2022-08-11T00:01:53;7.97;;;2.40;;
37267;SDS011;23154;52.542;13.362;2022-08-11T00:04:20;11.55;;;2.75;;
37267;SDS011;23154;52.542;13.362;2022-08-11T00:06:49;7.70;;;2.60;;
37267;SDS011;23154;52.542;13.362;2022-08-11T00:09:17;9.23;;;2.63;;
37267;SDS011;23154;52.542;13.362;2022-08-11T00:11:56;9.80;;;2.50;;
37267;SDS011;23154;52.542;13.362;2022-08-11T00:14:24;9.20;;;2.58;;
37267;SDS011;23154;52.542;13.362;2022-08-11T00:16:57;11.02;;;2.67;;
37267;SDS011;23154;52.542;13.362;2022-08-11T00:19:32;13.20;;;2.85;;
37267;SDS011;23154;52.542;13.362;2022-08-11T00:22:01;11.82;;;2.55;;
37267;SDS011;23154;52.542;13.362;2022-08-11T00:24:31;12.23;;;2.70;;
37267;SDS011;23154;52.542;13.362;2022-08-11T00:26:58;10.10;;;2.65;;
37267;SDS011;23154;52.542;13.362;2022-08-11T00:29:25;10.13;;;2.60;;
37267;SDS011;23154;52.542;13.362;2022-08-11T00:31:52;11.43;;;2.55;;
37267;SDS011;23154;52.542;13.362;2022-08-11T00:37:24;9.07;;;2.70;;
37267;SDS011;23154;52.542;13.362;2022-08-11T00:39:52;10.90;;;2.80;;
37267;SDS011;23154;52.542;13.362;2022-08-11T00:50:38;8.70;;;2.47;;
37267;SDS011;23154;52.542;13.362;2022-08-11T00:59:02;13.07;;;2.47;;
37267;SDS011;23154;52.542;13.362;2022-08-11T01:01:47;11.68;;;2.55;;
37267;SDS011;23154;52.542;13.362;2022-08-11T01:04:44;7.13;;;2.38;;
37267;SDS011;23154;52.542;13.362;2022-08-11T01:09:58;8.57;;;2.38;;
37267;SDS011;23154;52.542;13.362;2022-08-11T01:26:14;9.95;;;2.50;;
37267;SDS011;23154;52.542;13.362;2022-08-11T01:29:09;14.73;;;2.78;;
37267;SDS011;23154;52.542;13.362;2022-08-11T01:57:37;9.13;;;2.83;;
37267;SDS011;23154;52.542;13.362;2022-08-11T02:00:11;14.05;;;2.60;;
37267;SDS011;23154;52.542;13.362;2022-08-11T02:08:44;12.43;;;2.80;;
37267;SDS011;23154;52.542;13.362;2022-08-11T02:11:25;12.80;;;2.75;;
37267;SDS011;23154;52.542;13.362;2022-08-11T02:13:59;10.43;;;2.50;;
37267;SDS011;23154;52.542;13.362;2022-08-11T02:28:06;9.07;;;2.80;;
37267;SDS011;23154;52.542;13.362;2022-08-11T02:30:45;13.02;;;3.15;;
37267;SDS011;23154;52.542;13.362;2022-08-11T02:33:42;10.48;;;2.78;;
37267;SDS011;23154;52.542;13.362;2022-08-11T02:36:16;11.20;;;2.90;;
37267;SDS011;23154;52.542;13.362;2022-08-11T02:38:58;11.93;;;2.95;;
37267;SDS011;23154;52.542;13.362;2022-08-11T02:44:36;13.07;;;3.10;;
37267;SDS011;23154;52.542;13.362;2022-08-11T02:50:35;10.52;;;3.22;;
37267;SDS011;23154;52.542;13.362;2022-08-11T02:53:22;16.23;;;3.30;;
37267;SDS011;23154;52.542;13.362;2022-08-11T03:02:02;11.35;;;2.97;;
37267;SDS011;23154;52.542;13.362;2022-08-11T03:04:54;10.43;;;3.35;;
37267;SDS011;23154;52.542;13.362;2022-08-11T03:10:33;15.05;;;3.67;;
37267;SDS011;23154;52.542;13.362;2022-08-11T03:13:21;10.93;;;3.30;;
37267;SDS011;23154;52.542;13.362;2022-08-11T03:21:52;12.27;;;3.58;;
37267;SDS011;23154;52.542;13.362;2022-08-11T03:27:25;10.87;;;3.47;;
37267;SDS011;23154;52.542;13.362;2022-08-11T03:30:12;17.90;;;3.33;;
37267;SDS011;23154;52.542;13.362;2022-08-11T03:32:49;13.50;;;3.40;;
37267;SDS011;23154;52.542;13.362;2022-08-11T03:36:02;13.90;;;3.25;;
37267;SDS011;23154;52.542;13.362;2022-08-11T03:41:18;16.25;;;3.78;;
37267;SDS011;23154;52.542;13.362;2022-08-11T03:44:17;17.80;;;4.30;;
37267;SDS011;23154;52.542;13.362;2022-08-11T03:53:09;11.07;;;3.33;;
37267;SDS011;23154;52.542;13.362;2022-08-11T04:04:11;13.07;;;3.90;;
37267;SDS011;23154;52.542;13.362;2022-08-11T04:21:19;18.02;;;4.20;;
37267;SDS011;23154;52.542;13.362;2022-08-11T04:30:02;14.80;;;4.17;;
37267;SDS011;23154;52.542;13.362;2022-08-11T04:32:47;10.77;;;3.35;;
37267;SDS011;23154;52.542;13.362;2022-08-11T04:38:13;15.63;;;4.22;;
37267;SDS011;23154;52.542;13.362;2022-08-11T04:53:28;18.60;;;4.82;;
37267;SDS011;23154;52.542;13.362;2022-08-11T04:56:24;21.77;;;4.20;;
37267;SDS011;23154;52.542;13.362;2022-08-11T04:59:32;18.95;;;4.38;;
37267;SDS011;23154;52.542;13.362;2022-08-11T05:02:48;18.10;;;4.85;;
37267;SDS011;23154;52.542;13.362;2022-08-11T05:09:02;16.92;;;4.05;;
37267;SDS011;23154;52.542;13.362;2022-08-11T05:14:46;15.05;;;4.13;;
37267;SDS011;23154;52.542;13.362;2022-08-11T05:17:37;19.45;;;4.50;;
37267;SDS011;23154;52.542;13.362;2022-08-11T05:20:28;14.60;;;4.88;;
37267;SDS011;23154;52.542;13.362;2022-08-11T05:23:13;23.55;;;4.43;;
37267;SDS011;23154;52.542;13.362;2022-08-11T05:25:59;16.90;;;4.30;;
37267;SDS011;23154;52.542;13.362;2022-08-11T05:28:49;14.48;;;4.13;;
37267;SDS011;23154;52.542;13.362;2022-08-11T05:31:40;15.18;;;4.63;;
37267;SDS011;23154;52.542;13.362;2022-08-11T05:34:41;21.67;;;7.38;;
37267;SDS011;23154;52.542;13.362;2022-08-11T05:37:24;23.05;;;4.90;;
37267;SDS011;23154;52.542;13.362;2022-08-11T05:40:08;14.57;;;4.35;;
37267;SDS011;23154;52.542;13.362;2022-08-11T05:42:55;15.38;;;4.78;;
37267;SDS011;23154;52.542;13.362;2022-08-11T05:45:54;15.23;;;4.28;;
37267;SDS011;23154;52.542;13.362;2022-08-11T05:48:43;18.25;;;4.50;;
37267;SDS011;23154;52.542;13.362;2022-08-11T05:51:34;21.40;;;5.07;;
37267;SDS011;23154;52.542;13.362;2022-08-11T05:54:24;19.42;;;5.32;;
37267;SDS011;23154;52.542;13.362;2022-08-11T05:57:17;20.83;;;4.70;;
37267;SDS011;23154;52.542;13.362;2022-08-11T05:59:45;15.98;;;4.93;;
37267;SDS011;23154;52.542;13.362;2022-08-11T06:02:13;15.50;;;4.80;;
37267;SDS011;23154;52.542;13.362;2022-08-11T06:04:40;18.17;;;4.82;;
37267;SDS011;23154;52.542;13.362;2022-08-11T06:07:07;23.50;;;5.40;;
37267;SDS011;23154;52.542;13.362;2022-08-11T06:14:46;18.55;;;5.18;;
37267;SDS011;23154;52.542;13.362;2022-08-11T06:17:34;20.17;;;5.05;;
37267;SDS011;23154;52.542;13.362;2022-08-11T06:20:09;18.35;;;4.88;;
37267;SDS011;23154;52.542;13.362;2022-08-11T06:22:37;22.60;;;5.13;;
37267;SDS011;23154;52.542;13.362;2022-08-11T06:25:04;20.83;;;5.00;;
37267;SDS011;23154;52.542;13.362;2022-08-11T06:27:32;23.02;;;4.97;;
37267;SDS011;23154;52.542;13.362;2022-08-11T06:30:00;26.73;;;5.32;;
37267;SDS011;23154;52.542;13.362;2022-08-11T06:32:33;17.80;;;4.95;;
37267;SDS011;23154;52.542;13.362;2022-08-11T06:37:29;26.08;;;5.07;;
37267;SDS011;23154;52.542;13.362;2022-08-11T06:40:12;17.45;;;4.28;;
37267;SDS011;23154;52.542;13.362;2022-08-11T06:42:49;18.40;;;4.38;;
37267;SDS011;23154;52.542;13.362;2022-08-11T06:45:27;19.75;;;4.70;;
37267;SDS011;23154;52.542;13.362;2022-08-11T06:48:04;16.60;;;4.50;;
37267;SDS011;23154;52.542;13.362;2022-08-11T06:50:39;19.92;;;4.63;;
37267;SDS011;23154;52.542;13.362;2022-08-11T06:53:23;16.88;;;4.32;;
37267;SDS011;23154;52.542;13.362;2022-08-11T06:55:49;18.67;;;4.57;;
37267;SDS011;23154;52.542;13.362;2022-08-11T06:58:35;18.20;;;4.50;;
37267;SDS011;23154;52.542;13.362;2022-08-11T07:01:26;37.15;;;7.03;;
37267;SDS011;23154;52.542;13.362;2022-08-11T07:04:05;19.00;;;4.68;;
37267;SDS011;23154;52.542;13.362;2022-08-11T07:12:48;14.65;;;4.10;;
37267;SDS011;23154;52.542;13.362;2022-08-11T07:15:35;16.77;;;4.20;;
37267;SDS011;23154;52.542;13.362;2022-08-11T07:18:05;18.45;;;4.93;;
37267;SDS011;23154;52.542;13.362;2022-08-11T07:20:51;21.90;;;5.13;;
37267;SDS011;23154;52.542;13.362;2022-08-11T07:23:38;20.17;;;4.80;;
37267;SDS011;23154;52.542;13.362;2022-08-11T07:26:23;20.63;;;4.97;;
37267;SDS011;23154;52.542;13.362;2022-08-11T07:29:10;19.58;;;6.90;;
37267;SDS011;23154;52.542;13.362;2022-08-11T07:31:40;24.92;;;7.00;;
37267;SDS011;23154;52.542;13.362;2022-08-11T07:36:52;18.40;;;5.72;;
37267;SDS011;23154;52.542;13.362;2022-08-11T07:39:26;24.67;;;8.85;;
37267;SDS011;23154;52.542;13.362;2022-08-11T07:41:56;18.63;;;4.63;;
37267;SDS011;23154;52.542;13.362;2022-08-11T07:44:26;16.10;;;3.78;;
37267;SDS011;23154;52.542;13.362;2022-08-11T07:46:55;19.42;;;4.50;;
37267;SDS011;23154;52.542;13.362;2022-08-11T07:49:43;16.20;;;4.88;;
37267;SDS011;23154;52.542;13.362;2022-08-11T07:52:28;16.10;;;4.55;;
37267;SDS011;23154;52.542;13.362;2022-08-11T07:54:58;17.90;;;4.60;;
37267;SDS011;23154;52.542;13.362;2022-08-11T07:57:24;19.80;;;4.32;;
37267;SDS011;23154;52.542;13.362;2022-08-11T08:00:10;19.30;;;4.38;;
37267;SDS011;23154;52.542;13.362;2022-08-11T08:02:56;24.02;;;5.10;;
37267;SDS011;23154;52.542;13.362;2022-08-11T08:05:43;17.67;;;4.75;;
37267;SDS011;23154;52.542;13.362;2022-08-11T08:08:30;22.00;;;5.07;;
37267;SDS011;23154;52.542;13.362;2022-08-11T08:11:15;19.23;;;4.50;;
37267;SDS011;23154;52.542;13.362;2022-08-11T08:14:02;17.27;;;4.85;;
37267;SDS011;23154;52.542;13.362;2022-08-11T08:16:46;15.23;;;4.32;;
37267;SDS011;23154;52.542;13.362;2022-08-11T08:19:31;21.67;;;4.35;;
37267;SDS011;23154;52.542;13.362;2022-08-11T08:21:57;21.83;;;4.55;;
37267;SDS011;23154;52.542;13.362;2022-08-11T08:24:23;15.18;;;4.10;;
37267;SDS011;23154;52.542;13.362;2022-08-11T08:26:49;20.20;;;4.57;;
37267;SDS011;23154;52.542;13.362;2022-08-11T08:29:28;17.75;;;4.25;;
37267;SDS011;23154;52.542;13.362;2022-08-11T08:32:16;16.17;;;4.35;;
37267;SDS011;23154;52.542;13.362;2022-08-11T08:34:43;14.02;;;3.63;;
37267;SDS011;23154;52.542;13.362;2022-08-11T08:37:10;25.60;;;4.30;;
37267;SDS011;23154;52.542;13.362;2022-08-11T08:39:37;15.55;;;3.50;;
37267;SDS011;23154;52.542;13.362;2022-08-11T08:42:10;16.63;;;4.25;;
37267;SDS011;23154;52.542;13.362;2022-08-11T08:44:39;13.75;;;3.50;;
37267;SDS011;23154;52.542;13.362;2022-08-11T08:47:14;13.40;;;3.72;;
37267;SDS011;23154;52.542;13.362;2022-08-11T08:49:47;14.63;;;3.60;;
37267;SDS011;23154;52.542;13.362;2022-08-11T08:52:18;11.48;;;3.05;;
37267;SDS011;23154;52.542;13.362;2022-08-11T08:54:47;19.17;;;3.50;;
37267;SDS011;23154;52.542;13.362;2022-08-11T08:57:18;13.35;;;3.15;;
37267;SDS011;23154;52.542;13.362;2022-08-11T08:59:51;11.57;;;3.17;;
37267;SDS011;23154;52.542;13.362;2022-08-11T09:02:18;14.20;;;3.10;;
37267;SDS011;23154;52.542;13.362;2022-08-11T09:04:48;13.05;;;3.25;;
37267;SDS011;23154;52.542;13.362;2022-08-11T09:07:15;12.23;;;3.33;;
37267;SDS011;23154;52.542;13.362;2022-08-11T09:09:43;18.35;;;3.75;;
37267;SDS011;23154;52.542;13.362;2022-08-11T09:12:13;11.52;;;3.17;;
37267;SDS011;23154;52.542;13.362;2022-08-11T09:14:41;13.10;;;2.90;;
37267;SDS011;23154;52.542;13.362;2022-08-11T09:17:25;10.45;;;3.17;;
37267;SDS011;23154;52.542;13.362;2022-08-11T09:22:48;17.95;;;3.38;;
37267;SDS011;23154;52.542;13.362;2022-08-11T09:25:34;20.33;;;3.60;;
37267;SDS011;23154;52.542;13.362;2022-08-11T09:28:19;11.48;;;3.10;;
37267;SDS011;23154;52.542;13.362;2022-08-11T09:30:50;18.60;;;3.53;;
37267;SDS011;23154;52.542;13.362;2022-08-11T09:33:20;11.77;;;2.97;;
37267;SDS011;23154;52.542;13.362;2022-08-11T09:35:50;13.63;;;3.20;;
37267;SDS011;23154;52.542;13.362;2022-08-11T09:38:17;15.55;;;2.85;;
37267;SDS011;23154;52.542;13.362;2022-08-11T09:41:04;12.60;;;3.10;;
37267;SDS011;23154;52.542;13.362;2022-08-11T09:43:32;11.20;;;3.45;;
37267;SDS011;23154;52.542;13.362;2022-08-11T09:46:23;11.40;;;3.40;;
37267;SDS011;23154;52.542;13.362;2022-08-11T09:48:51;11.43;;;3.30;;
37267;SDS011;23154;52.542;13.362;2022-08-11T09:51:21;10.52;;;3.22;;
37267;SDS011;23154;52.542;13.362;2022-08-11T09:53:47;18.83;;;3.42;;
37267;SDS011;23154;52.542;13.362;2022-08-11T09:56:18;15.60;;;3.10;;
37267;SDS011;23154;52.542;13.362;2022-08-11T09:59:06;10.95;;;2.92;;
37267;SDS011;23154;52.542;13.362;2022-08-11T10:01:38;15.45;;;3.00;;
37267;SDS011;23154;52.542;13.362;2022-08-11T10:04:23;9.52;;;2.80;;
37267;SDS011;23154;52.542;13.362;2022-08-11T10:06:59;15.10;;;2.92;;
37267;SDS011;23154;52.542;13.362;2022-08-11T10:09:37;9.77;;;3.00;;
37267;SDS011;23154;52.542;13.362;2022-08-11T10:12:05;11.32;;;3.28;;
37267;SDS011;23154;52.542;13.362;2022-08-11T10:14:36;9.68;;;3.22;;
37267;SDS011;23154;52.542;13.362;2022-08-11T10:17:29;14.05;;;3.40;;
37267;SDS011;23154;52.542;13.362;2022-08-11T10:22:27;18.02;;;3.10;;
37267;SDS011;23154;52.542;13.362;2022-08-11T10:25:12;9.43;;;2.90;;
37267;SDS011;23154;52.542;13.362;2022-08-11T10:27:58;12.82;;;3.30;;
37267;SDS011;23154;52.542;13.362;2022-08-11T10:30:27;14.68;;;3.53;;
37267;SDS011;23154;52.542;13.362;2022-08-11T10:33:12;13.18;;;3.28;;
37267;SDS011;23154;52.542;13.362;2022-08-11T10:36:01;14.57;;;2.80;;
37267;SDS011;23154;52.542;13.362;2022-08-11T10:38:29;11.90;;;3.30;;
37267;SDS011;23154;52.542;13.362;2022-08-11T10:40:55;11.93;;;3.35;;
37267;SDS011;23154;52.542;13.362;2022-08-11T10:43:40;8.88;;;2.80;;
37267;SDS011;23154;52.542;13.362;2022-08-11T10:46:11;11.35;;;3.15;;
37267;SDS011;23154;52.542;13.362;2022-08-11T10:48:56;13.52;;;2.65;;
37267;SDS011;23154;52.542;13.362;2022-08-11T10:51:24;12.05;;;2.90;;
37267;SDS011;23154;52.542;13.362;2022-08-11T10:54:10;12.02;;;2.88;;
37267;SDS011;23154;52.542;13.362;2022-08-11T10:56:54;15.43;;;3.22;;
37267;SDS011;23154;52.542;13.362;2022-08-11T10:59:39;11.07;;;3.22;;
37267;SDS011;23154;52.542;13.362;2022-08-11T11:02:08;15.05;;;3.03;;
37267;SDS011;23154;52.542;13.362;2022-08-11T11:04:43;12.25;;;3.33;;
37267;SDS011;23154;52.542;13.362;2022-08-11T11:07:17;14.00;;;3.08;;
37267;SDS011;23154;52.542;13.362;2022-08-11T11:09:57;14.27;;;3.33;;
37267;SDS011;23154;52.542;13.362;2022-08-11T11:12:30;11.93;;;2.90;;
37267;SDS011;23154;52.542;13.362;2022-08-11T11:15:18;8.00;;;2.92;;
37267;SDS011;23154;52.542;13.362;2022-08-11T11:18:15;11.88;;;2.85;;
37267;SDS011;23154;52.542;13.362;2022-08-11T11:20:53;9.68;;;3.33;;
37267;SDS011;23154;52.542;13.362;2022-08-11T11:23:26;15.77;;;2.88;;
37267;SDS011;23154;52.542;13.362;2022-08-11T11:37:50;11.38;;;3.00;;
37267;SDS011;23154;52.542;13.362;2022-08-11T11:40:18;11.38;;;2.90;;
37267;SDS011;23154;52.542;13.362;2022-08-11T11:45:14;10.30;;;2.78;;
37267;SDS011;23154;52.542;13.362;2022-08-11T11:47:41;13.75;;;3.03;;
37267;SDS011;23154;52.542;13.362;2022-08-11T11:50:11;10.77;;;2.73;;
37267;SDS011;23154;52.542;13.362;2022-08-11T11:52:38;8.50;;;3.00;;
37267;SDS011;23154;52.542;13.362;2022-08-11T11:55:04;11.60;;;2.63;;
37267;SDS011;23154;52.542;13.362;2022-08-11T11:57:31;9.38;;;3.28;;
37267;SDS011;23154;52.542;13.362;2022-08-11T12:00:17;11.90;;;2.78;;
37267;SDS011;23154;52.542;13.362;2022-08-11T12:03:04;9.63;;;2.80;;
37267;SDS011;23154;52.542;13.362;2022-08-11T12:05:34;12.65;;;3.08;;
37267;SDS011;23154;52.542;13.362;2022-08-11T12:08:02;11.43;;;3.00;;
37267;SDS011;23154;52.542;13.362;2022-08-11T12:11:01;9.73;;;2.90;;
37267;SDS011;23154;52.542;13.362;2022-08-11T12:13:47;10.32;;;2.70;;
37267;SDS011;23154;52.542;13.362;2022-08-11T12:16:17;11.50;;;3.13;;
37267;SDS011;23154;52.542;13.362;2022-08-11T12:18:44;9.25;;;2.95;;
37267;SDS011;23154;52.542;13.362;2022-08-11T12:21:13;11.73;;;2.83;;
37267;SDS011;23154;52.542;13.362;2022-08-11T12:23:40;14.07;;;2.88;;
37267;SDS011;23154;52.542;13.362;2022-08-11T12:26:26;14.88;;;3.08;;
37267;SDS011;23154;52.542;13.362;2022-08-11T12:29:12;14.23;;;2.75;;
37267;SDS011;23154;52.542;13.362;2022-08-11T12:31:40;11.48;;;2.83;;
37267;SDS011;23154;52.542;13.362;2022-08-11T12:34:08;11.85;;;3.33;;
37267;SDS011;23154;52.542;13.362;2022-08-11T12:36:36;13.67;;;3.20;;
37267;SDS011;23154;52.542;13.362;2022-08-11T12:39:05;11.50;;;2.60;;
37267;SDS011;23154;52.542;13.362;2022-08-11T12:41:36;10.40;;;2.55;;
37267;SDS011;23154;52.542;13.362;2022-08-11T12:44:24;13.80;;;3.17;;
37267;SDS011;23154;52.542;13.362;2022-08-11T12:47:12;10.50;;;2.45;;
37267;SDS011;23154;52.542;13.362;2022-08-11T12:49:43;12.68;;;3.30;;
37267;SDS011;23154;52.542;13.362;2022-08-11T12:52:43;10.18;;;3.10;;
37267;SDS011;23154;52.542;13.362;2022-08-11T12:55:16;9.88;;;2.75;;
37267;SDS011;23154;52.542;13.362;2022-08-11T12:58:07;13.20;;;2.67;;
37267;SDS011;23154;52.542;13.362;2022-08-11T13:00:43;10.23;;;2.65;;
37267;SDS011;23154;52.542;13.362;2022-08-11T13:03:28;13.20;;;3.00;;
37267;SDS011;23154;52.542;13.362;2022-08-11T13:06:14;15.80;;;3.00;;
37267;SDS011;23154;52.542;13.362;2022-08-11T13:08:41;11.95;;;2.70;;
37267;SDS011;23154;52.542;13.362;2022-08-11T13:11:09;9.82;;;2.40;;
37267;SDS011;23154;52.542;13.362;2022-08-11T13:13:53;10.73;;;2.80;;
37267;SDS011;23154;52.542;13.362;2022-08-11T13:16:28;12.25;;;3.00;;
37267;SDS011;23154;52.542;13.362;2022-08-11T13:19:16;12.18;;;3.40;;
37267;SDS011;23154;52.542;13.362;2022-08-11T13:21:44;17.23;;;3.08;;
37267;SDS011;23154;52.542;13.362;2022-08-11T13:24:11;9.75;;;2.80;;
37267;SDS011;23154;52.542;13.362;2022-08-11T13:26:37;12.65;;;2.72;;
37267;SDS011;23154;52.542;13.362;2022-08-11T13:29:02;10.70;;;2.65;;
37267;SDS011;23154;52.542;13.362;2022-08-11T13:31:29;10.10;;;2.67;;
37267;SDS011;23154;52.542;13.362;2022-08-11T13:33:56;10.23;;;2.60;;
37267;SDS011;23154;52.542;13.362;2022-08-11T13:36:22;11.45;;;2.55;;
37267;SDS011;23154;52.542;13.362;2022-08-11T13:38:52;11.73;;;2.65;;
37267;SDS011;23154;52.542;13.362;2022-08-11T13:41:19;10.25;;;2.30;;
37267;SDS011;23154;52.542;13.362;2022-08-11T13:44:06;12.48;;;2.60;;
37267;SDS011;23154;52.542;13.362;2022-08-11T13:46:33;9.77;;;2.30;;
37267;SDS011;23154;52.542;13.362;2022-08-11T13:49:00;9.95;;;2.47;;
37267;SDS011;23154;52.542;13.362;2022-08-11T13:51:26;8.25;;;2.30;;
37267;SDS011;23154;52.542;13.362;2022-08-11T13:53:58;11.25;;;2.70;;
37267;SDS011;23154;52.542;13.362;2022-08-11T13:56:24;14.50;;;2.63;;
37267;SDS011;23154;52.542;13.362;2022-08-11T13:58:51;8.95;;;2.22;;
37267;SDS011;23154;52.542;13.362;2022-08-11T14:01:18;14.18;;;2.45;;
37267;SDS011;23154;52.542;13.362;2022-08-11T14:03:45;9.02;;;2.80;;
37267;SDS011;23154;52.542;13.362;2022-08-11T14:06:13;8.48;;;2.40;;
37267;SDS011;23154;52.542;13.362;2022-08-11T14:08:41;12.57;;;2.53;;
37267;SDS011;23154;52.542;13.362;2022-08-11T14:11:08;10.07;;;2.20;;
37267;SDS011;23154;52.542;13.362;2022-08-11T14:13:53;11.82;;;2.15;;
37267;SDS011;23154;52.542;13.362;2022-08-11T14:16:26;7.90;;;2.42;;
37267;SDS011;23154;52.542;13.362;2022-08-11T14:18:56;12.32;;;2.75;;
37267;SDS011;23154;52.542;13.362;2022-08-11T14:21:27;9.27;;;2.17;;
37267;SDS011;23154;52.542;13.362;2022-08-11T14:24:16;12.17;;;2.27;;
37267;SDS011;23154;52.542;13.362;2022-08-11T14:26:42;10.55;;;2.42;;
37267;SDS011;23154;52.542;13.362;2022-08-11T14:29:13;10.70;;;2.03;;
37267;SDS011;23154;52.542;13.362;2022-08-11T14:31:50;8.65;;;1.98;;
37267;SDS011;23154;52.542;13.362;2022-08-11T14:34:22;7.00;;;1.77;;
37267;SDS011;23154;52.542;13.362;2022-08-11T14:36:51;10.07;;;2.10;;
37267;SDS011;23154;52.542;13.362;2022-08-11T14:39:20;8.95;;;2.10;;
37267;SDS011;23154;52.542;13.362;2022-08-11T14:41:49;9.00;;;1.98;;
37267;SDS011;23154;52.542;13.362;2022-08-11T14:44:39;21.58;;;3.20;;
37267;SDS011;23154;52.542;13.362;2022-08-11T14:47:29;15.48;;;2.53;;
37267;SDS011;23154;52.542;13.362;2022-08-11T14:50:01;7.88;;;1.95;;
37267;SDS011;23154;52.542;13.362;2022-08-11T14:52:28;11.32;;;3.33;;
37267;SDS011;23154;52.542;13.362;2022-08-11T14:55:03;9.15;;;1.80;;
37267;SDS011;23154;52.542;13.362;2022-08-11T14:57:47;10.10;;;2.20;;
37267;SDS011;23154;52.542;13.362;2022-08-11T15:00:15;10.57;;;2.00;;
37267;SDS011;23154;52.542;13.362;2022-08-11T15:02:42;10.48;;;2.42;;
37267;SDS011;23154;52.542;13.362;2022-08-11T15:05:28;8.00;;;2.00;;
37267;SDS011;23154;52.542;13.362;2022-08-11T15:07:55;9.82;;;2.00;;
37267;SDS011;23154;52.542;13.362;2022-08-11T15:10:22;11.68;;;1.98;;
37267;SDS011;23154;52.542;13.362;2022-08-11T15:12:49;6.07;;;1.95;;
37267;SDS011;23154;52.542;13.362;2022-08-11T15:15:16;8.68;;;1.90;;
37267;SDS011;23154;52.542;13.362;2022-08-11T15:18:02;10.82;;;1.80;;
37267;SDS011;23154;52.542;13.362;2022-08-11T15:20:30;8.52;;;1.70;;
37267;SDS011;23154;52.542;13.362;2022-08-11T15:23:15;7.15;;;1.83;;
37267;SDS011;23154;52.542;13.362;2022-08-11T15:26:16;9.43;;;1.70;;
37267;SDS011;23154;52.542;13.362;2022-08-11T15:28:47;9.45;;;1.67;;
37267;SDS011;23154;52.542;13.362;2022-08-11T15:31:32;7.30;;;1.75;;
37267;SDS011;23154;52.542;13.362;2022-08-11T15:34:19;7.80;;;1.90;;
37267;SDS011;23154;52.542;13.362;2022-08-11T15:37:07;9.32;;;1.77;;
37267;SDS011;23154;52.542;13.362;2022-08-11T15:42:48;7.68;;;1.90;;
37267;SDS011;23154;52.542;13.362;2022-08-11T15:45:42;9.38;;;1.90;;
37267;SDS011;23154;52.542;13.362;2022-08-11T15:48:21;5.28;;;1.33;;
37267;SDS011;23154;52.542;13.362;2022-08-11T15:51:05;6.40;;;1.80;;
37267;SDS011;23154;52.542;13.362;2022-08-11T15:53:54;9.20;;;1.70;;
37267;SDS011;23154;52.542;13.362;2022-08-11T15:56:26;6.97;;;1.92;;
37267;SDS011;23154;52.542;13.362;2022-08-11T15:58:55;5.37;;;1.70;;
37267;SDS011;23154;52.542;13.362;2022-08-11T16:01:41;7.80;;;1.70;;
37267;SDS011;23154;52.542;13.362;2022-08-11T16:04:28;9.48;;;1.55;;
37267;SDS011;23154;52.542;13.362;2022-08-11T16:07:08;10.45;;;2.03;;
37267;SDS011;23154;52.542;13.362;2022-08-11T16:12:17;7.35;;;1.80;;
37267;SDS011;23154;52.542;13.362;2022-08-11T16:17:39;5.43;;;1.80;;
37267;SDS011;23154;52.542;13.362;2022-08-11T16:20:09;11.75;;;2.47;;
37267;SDS011;23154;52.542;13.362;2022-08-11T16:22:36;8.07;;;2.20;;
37267;SDS011;23154;52.542;13.362;2022-08-11T16:25:16;5.45;;;1.55;;
37267;SDS011;23154;52.542;13.362;2022-08-11T16:27:48;21.65;;;7.05;;
37267;SDS011;23154;52.542;13.362;2022-08-11T16:30:16;12.25;;;3.33;;
37267;SDS011;23154;52.542;13.362;2022-08-11T16:32:43;13.82;;;3.78;;
37267;SDS011;23154;52.542;13.362;2022-08-11T16:35:14;8.98;;;1.90;;
37267;SDS011;23154;52.542;13.362;2022-08-11T16:38:16;11.52;;;2.90;;
37267;SDS011;23154;52.542;13.362;2022-08-11T16:41:10;11.32;;;2.88;;
37267;SDS011;23154;52.542;13.362;2022-08-11T16:43:47;9.15;;;2.05;;
37267;SDS011;23154;52.542;13.362;2022-08-11T16:46:32;13.23;;;3.22;;
37267;SDS011;23154;52.542;13.362;2022-08-11T16:49:22;7.90;;;2.17;;
37267;SDS011;23154;52.542;13.362;2022-08-11T16:51:52;10.20;;;3.00;;
37267;SDS011;23154;52.542;13.362;2022-08-11T16:54:18;7.63;;;1.75;;
37267;SDS011;23154;52.542;13.362;2022-08-11T16:59:15;15.00;;;2.83;;
37267;SDS011;23154;52.542;13.362;2022-08-11T17:02:06;10.48;;;2.90;;
37267;SDS011;23154;52.542;13.362;2022-08-11T17:04:44;15.23;;;2.70;;
37267;SDS011;23154;52.542;13.362;2022-08-11T17:07:33;8.57;;;2.10;;
37267;SDS011;23154;52.542;13.362;2022-08-11T17:10:26;9.77;;;1.88;;
37267;SDS011;23154;52.542;13.362;2022-08-11T17:13:16;6.72;;;2.25;;
37267;SDS011;23154;52.542;13.362;2022-08-11T17:15:48;8.82;;;1.80;;
37267;SDS011;23154;52.542;13.362;2022-08-11T17:18:39;12.60;;;1.70;;
37267;SDS011;23154;52.542;13.362;2022-08-11T17:21:21;7.88;;;1.80;;
37267;SDS011;23154;52.542;13.362;2022-08-11T17:23:52;8.27;;;2.40;;
37267;SDS011;23154;52.542;13.362;2022-08-11T17:26:31;10.18;;;1.98;;
37267;SDS011;23154;52.542;13.362;2022-08-11T17:29:24;6.55;;;1.90;;
37267;SDS011;23154;52.542;13.362;2022-08-11T17:32:01;8.48;;;1.80;;
37267;SDS011;23154;52.542;13.362;2022-08-11T17:34:47;10.80;;;1.80;;
37267;SDS011;23154;52.542;13.362;2022-08-11T17:37:34;7.82;;;1.80;;
37267;SDS011;23154;52.542;13.362;2022-08-11T17:40:04;8.70;;;1.98;;
37267;SDS011;23154;52.542;13.362;2022-08-11T17:42:33;11.98;;;2.15;;
37267;SDS011;23154;52.542;13.362;2022-08-11T17:45:19;11.55;;;1.75;;
37267;SDS011;23154;52.542;13.362;2022-08-11T17:48:05;10.32;;;2.10;;
37267;SDS011;23154;52.542;13.362;2022-08-11T17:50:52;9.27;;;1.75;;
37267;SDS011;23154;52.542;13.362;2022-08-11T17:53:28;8.20;;;1.77;;
37267;SDS011;23154;52.542;13.362;2022-08-11T17:56:23;9.32;;;1.88;;
37267;SDS011;23154;52.542;13.362;2022-08-11T17:59:09;6.40;;;1.50;;
37267;SDS011;23154;52.542;13.362;2022-08-11T18:01:55;9.93;;;2.45;;
37267;SDS011;23154;52.542;13.362;2022-08-11T18:04:44;6.87;;;1.93;;
37267;SDS011;23154;52.542;13.362;2022-08-11T18:07:13;7.55;;;2.25;;
37267;SDS011;23154;52.542;13.362;2022-08-11T18:10:01;8.85;;;2.35;;
37267;SDS011;23154;52.542;13.362;2022-08-11T18:12:48;14.55;;;2.72;;
37267;SDS011;23154;52.542;13.362;2022-08-11T18:15:34;7.60;;;1.95;;
37267;SDS011;23154;52.542;13.362;2022-08-11T18:18:21;8.05;;;2.20;;
37267;SDS011;23154;52.542;13.362;2022-08-11T18:21:05;8.98;;;2.20;;
37267;SDS011;23154;52.542;13.362;2022-08-11T18:23:49;9.38;;;2.55;;
37267;SDS011;23154;52.542;13.362;2022-08-11T18:26:36;15.75;;;2.72;;
37267;SDS011;23154;52.542;13.362;2022-08-11T18:29:25;10.63;;;2.70;;
37267;SDS011;23154;52.542;13.362;2022-08-11T18:32:11;10.27;;;2.30;;
37267;SDS011;23154;52.542;13.362;2022-08-11T18:34:59;11.40;;;2.40;;
37267;SDS011;23154;52.542;13.362;2022-08-11T18:37:46;8.95;;;2.35;;
37267;SDS011;23154;52.542;13.362;2022-08-11T18:40:32;12.07;;;2.63;;
37267;SDS011;23154;52.542;13.362;2022-08-11T18:43:18;10.43;;;2.15;;
37267;SDS011;23154;52.542;13.362;2022-08-11T18:46:05;10.00;;;2.53;;
37267;SDS011;23154;52.542;13.362;2022-08-11T18:48:53;12.05;;;2.72;;
37267;SDS011;23154;52.542;13.362;2022-08-11T18:51:44;21.13;;;8.30;;
37267;SDS011;23154;52.542;13.362;2022-08-11T18:54:32;13.73;;;3.20;;
37267;SDS011;23154;52.542;13.362;2022-08-11T18:57:20;10.88;;;3.33;;